createdAt,value
2022-08-04T00:02:07.756Z,3.10
2022-08-04T00:04:43.416Z,3.58
2022-08-04T00:07:44.927Z,7.32
2022-08-04T00:10:16.429Z,3.90
2022-08-04T00:12:49.976Z,4.90
2022-08-04T00:15:18.447Z,5.00
2022-08-04T00:17:51.763Z,4.30
2022-08-04T00:20:20.816Z,7.00
2022-08-04T00:22:48.923Z,4.93
2022-08-04T00:25:15.828Z,3.42
2022-08-04T00:27:44.099Z,6.95
2022-08-04T00:30:11.196Z,3.47
2022-08-04T00:32:41.283Z,4.75
2022-08-04T00:35:09.919Z,7.00
2022-08-04T00:37:38.819Z,4.40
2022-08-04T00:40:32.721Z,4.78
2022-08-04T00:43:15.085Z,6.35
2022-08-04T00:46:16.143Z,4.32
2022-08-04T00:49:02.944Z,5.30
2022-08-04T00:51:35.749Z,3.63
2022-08-04T00:54:37.915Z,5.47
2022-08-04T00:57:34.115Z,4.32
2022-08-04T01:00:11.741Z,3.63
2022-08-04T01:03:05.061Z,4.43
2022-08-04T01:05:38.840Z,3.92
2022-08-04T01:08:26.807Z,3.65
2022-08-04T01:11:11.465Z,5.03
2022-08-04T01:14:06.025Z,3.72
2022-08-04T01:16:40.072Z,3.72
2022-08-04T01:19:30.525Z,3.92
2022-08-04T01:22:16.023Z,3.85
2022-08-04T01:25:24.382Z,4.28
2022-08-04T01:28:15.390Z,4.50
2022-08-04T01:30:46.045Z,9.38
2022-08-04T01:33:14.733Z,5.95
2022-08-04T01:36:01.231Z,4.63
2022-08-04T01:38:35.649Z,5.60
2022-08-04T01:41:14.808Z,3.30
2022-08-04T01:43:44.311Z,3.55
2022-08-04T01:46:17.671Z,4.07
2022-08-04T01:48:47.113Z,4.72
2022-08-04T01:51:14.421Z,3.80
2022-08-04T01:53:43.183Z,4.40
2022-08-04T01:56:12.247Z,4.40
2022-08-04T01:58:40.993Z,5.78
2022-08-04T02:01:10.314Z,5.70
2022-08-04T02:04:21.603Z,4.35
2022-08-04T02:06:36.321Z,3.88
2022-08-04T02:09:23.997Z,3.83
2022-08-04T02:12:16.188Z,4.63
2022-08-04T02:14:56.595Z,3.15
2022-08-04T02:17:36.631Z,3.60
2022-08-04T02:20:14.401Z,4.55
2022-08-04T02:23:05.289Z,3.65
2022-08-04T02:25:40.619Z,4.53
2022-08-04T02:28:30.180Z,3.30
2022-08-04T02:31:11.635Z,6.25
2022-08-04T02:33:44.918Z,3.50
2022-08-04T02:36:21.036Z,4.65
2022-08-04T02:38:54.159Z,3.33
2022-08-04T02:41:24.728Z,3.00
2022-08-04T02:43:55.105Z,5.10
2022-08-04T02:48:51.355Z,3.40
2022-08-04T02:51:27.468Z,4.40
2022-08-04T02:53:56.322Z,3.88
2022-08-04T02:56:25.108Z,3.78
2022-08-04T02:58:58.230Z,4.38
2022-08-04T03:01:25.266Z,4.57
2022-08-04T03:04:06.425Z,3.08
2022-08-04T03:06:53.863Z,3.10
2022-08-04T03:09:54.695Z,4.15
2022-08-04T03:12:37.884Z,3.42
2022-08-04T03:15:22.646Z,4.53
2022-08-04T03:18:07.892Z,4.85
2022-08-04T03:20:55.783Z,3.22
2022-08-04T03:23:41.240Z,3.30
2022-08-04T03:26:42.945Z,3.28
2022-08-04T03:29:36.634Z,3.03
2022-08-04T03:32:28.928Z,3.10
2022-08-04T03:35:23.759Z,3.40
2022-08-04T03:38:03.211Z,2.80
2022-08-04T03:40:51.618Z,3.10
2022-08-04T03:43:58.367Z,3.90
2022-08-04T03:46:56.724Z,3.40
2022-08-04T03:50:01.069Z,2.95
2022-08-04T03:53:10.159Z,4.18
2022-08-04T03:56:14.472Z,3.67
2022-08-04T03:59:05.503Z,3.05
2022-08-04T04:02:02.537Z,3.45
2022-08-04T04:04:49.626Z,4.80
2022-08-04T04:07:48.869Z,3.17
2022-08-04T04:10:43.313Z,3.00
2022-08-04T04:13:17.334Z,3.05
2022-08-04T04:16:19.888Z,5.90
2022-08-04T04:18:55.766Z,3.65
2022-08-04T04:21:31.416Z,3.53
2022-08-04T04:24:19.459Z,3.17
2022-08-04T04:26:58.646Z,3.20
2022-08-04T04:29:31.516Z,3.83
2022-08-04T04:32:29.174Z,3.33
2022-08-04T04:35:05.024Z,4.90
2022-08-04T04:37:34.570Z,4.32
2022-08-04T04:40:10.363Z,4.57
2022-08-04T04:43:05.848Z,6.55
2022-08-04T04:45:51.030Z,5.00
2022-08-04T04:48:53.230Z,4.30
2022-08-04T04:51:37.675Z,4.68
2022-08-04T04:54:19.980Z,4.13
2022-08-04T04:57:09.861Z,4.68
2022-08-04T04:59:42.513Z,4.50
2022-08-04T05:02:38.530Z,5.40
2022-08-04T05:05:27.256Z,3.75
2022-08-04T05:07:58.453Z,3.45
2022-08-04T05:10:34.076Z,5.95
2022-08-04T05:14:35.579Z,7.15
2022-08-04T05:16:27.191Z,3.05
2022-08-04T05:19:08.954Z,9.20
2022-08-04T05:21:47.015Z,4.05
2022-08-04T05:24:22.360Z,4.35
2022-08-04T05:26:52.367Z,6.63
2022-08-04T05:29:36.416Z,5.75
2022-08-04T05:32:08.826Z,4.95
2022-08-04T05:34:43.939Z,3.95
2022-08-04T05:37:15.939Z,4.20
2022-08-04T05:39:50.071Z,5.15
2022-08-04T05:42:17.015Z,3.72
2022-08-04T05:44:48.880Z,4.80
2022-08-04T05:47:18.189Z,4.20
2022-08-04T05:49:45.710Z,5.05
2022-08-04T05:52:31.177Z,6.68
2022-08-04T05:55:00.436Z,8.40
2022-08-04T05:57:28.515Z,4.55
2022-08-04T05:59:58.753Z,4.68
2022-08-04T06:02:27.890Z,6.07
2022-08-04T06:04:56.141Z,2.92
2022-08-04T06:07:23.184Z,4.28
2022-08-04T06:09:50.090Z,4.32
2022-08-04T06:12:26.984Z,4.63
2022-08-04T06:14:59.642Z,2.90
2022-08-04T06:18:42.180Z,2.85
2022-08-04T06:20:22.806Z,5.47
2022-08-04T06:22:54.318Z,5.53
2022-08-04T06:25:24.771Z,3.08
2022-08-04T06:27:52.376Z,3.95
2022-08-04T06:30:20.639Z,4.40
2022-08-04T06:33:03.686Z,2.47
2022-08-04T06:35:32.866Z,2.60
2022-08-04T06:38:01.619Z,3.08
2022-08-04T06:40:33.246Z,4.38
2022-08-04T06:43:06.641Z,2.20
2022-08-04T06:45:39.886Z,3.00
2022-08-04T06:48:08.208Z,2.97
2022-08-04T06:51:32.108Z,5.15
2022-08-04T06:53:27.547Z,3.20
2022-08-04T06:55:56.351Z,4.10
2022-08-04T06:58:24.056Z,5.28
2022-08-04T07:00:51.991Z,3.17
2022-08-04T07:03:19.924Z,2.60
2022-08-04T07:05:48.262Z,2.95
2022-08-04T07:08:15.648Z,4.40
2022-08-04T07:10:43.471Z,3.47
2022-08-04T07:13:11.679Z,3.25
2022-08-04T07:15:43.769Z,3.43
2022-08-04T07:18:10.600Z,2.42
2022-08-04T07:20:44.495Z,4.38
2022-08-04T07:23:17.254Z,4.55
2022-08-04T07:26:00.574Z,3.83
2022-08-04T07:28:36.434Z,2.92
2022-08-04T07:31:05.253Z,4.03
2022-08-04T07:33:32.307Z,2.67
2022-08-04T07:36:05.744Z,6.75
2022-08-04T07:38:48.177Z,4.00
2022-08-04T07:41:39.326Z,2.60
2022-08-04T07:44:07.384Z,2.60
2022-08-04T07:46:35.040Z,3.75
2022-08-04T07:49:02.394Z,5.38
2022-08-04T07:51:30.902Z,3.67
2022-08-04T07:53:58.704Z,2.83
2022-08-04T07:56:27.052Z,2.47
2022-08-04T07:58:54.452Z,5.28
2022-08-04T08:01:22.562Z,3.95
2022-08-04T08:03:50.691Z,2.63
2022-08-04T08:06:32.147Z,3.22
2022-08-04T08:09:12.436Z,3.63
2022-08-04T08:12:37.865Z,6.55
2022-08-04T08:14:30.760Z,7.63
2022-08-04T08:17:00.199Z,3.73
2022-08-04T08:19:27.103Z,5.05
2022-08-04T08:21:59.745Z,2.30
2022-08-04T08:24:31.596Z,2.50
2022-08-04T08:27:00.265Z,3.58
2022-08-04T08:29:29.469Z,3.38
2022-08-04T08:32:00.429Z,2.30
2022-08-04T08:34:31.003Z,5.28
2022-08-04T08:37:07.813Z,2.67
2022-08-04T08:40:15.834Z,2.75
2022-08-04T08:43:03.705Z,3.88
2022-08-04T08:45:59.834Z,2.65
2022-08-04T08:48:55.177Z,4.63
2022-08-04T08:51:49.292Z,5.55
2022-08-04T08:54:31.100Z,2.40
2022-08-04T08:57:10.191Z,3.50
2022-08-04T09:00:01.037Z,2.78
2022-08-04T09:03:04.042Z,2.20
2022-08-04T09:05:42.891Z,2.28
2022-08-04T09:08:43.706Z,3.07
2022-08-04T09:11:23.755Z,6.15
2022-08-04T09:13:56.733Z,3.35
2022-08-04T09:16:42.414Z,2.70
2022-08-04T09:19:22.716Z,2.40
2022-08-04T09:22:13.586Z,2.88
2022-08-04T09:24:49.620Z,2.58
2022-08-04T09:27:21.070Z,3.85
2022-08-04T09:30:05.824Z,4.57
2022-08-04T09:32:38.694Z,2.90
2022-08-04T09:35:15.348Z,2.65
2022-08-04T09:38:11.290Z,5.43
2022-08-04T09:41:20.835Z,2.65
2022-08-04T09:44:50.827Z,6.88
2022-08-04T09:47:39.138Z,12.35
2022-08-04T09:50:39.975Z,2.63
2022-08-04T09:53:27.916Z,2.70
2022-08-04T09:56:13.815Z,4.57
2022-08-04T09:58:44.511Z,2.75
2022-08-04T10:01:22.806Z,2.90
2022-08-04T10:04:12.145Z,12.05
2022-08-04T10:07:06.900Z,2.80
2022-08-04T10:09:47.599Z,2.60
2022-08-04T10:12:55.363Z,3.20
2022-08-04T10:15:33.795Z,2.85
2022-08-04T10:19:07.866Z,7.28
2022-08-04T10:22:27.437Z,2.70
2022-08-04T10:25:04.921Z,4.15
2022-08-04T10:28:03.019Z,3.38
2022-08-04T10:30:34.143Z,4.78
2022-08-04T10:33:31.480Z,4.75
2022-08-04T10:36:10.723Z,3.10
2022-08-04T10:38:44.292Z,3.72
2022-08-04T10:41:49.815Z,4.22
2022-08-04T10:44:42.316Z,4.85
2022-08-04T10:47:18.568Z,4.25
2022-08-04T10:49:48.733Z,3.55
2022-08-04T10:52:28.695Z,4.38
2022-08-04T10:55:03.719Z,4.53
2022-08-04T10:57:35.340Z,3.20
2022-08-04T11:00:09.634Z,4.80
2022-08-04T11:02:48.242Z,2.88
2022-08-04T11:05:21.577Z,4.07
2022-08-04T11:07:52.368Z,3.63
2022-08-04T11:10:25.700Z,4.47
2022-08-04T11:12:59.548Z,4.25
2022-08-04T11:15:34.494Z,5.38
2022-08-04T11:18:16.602Z,4.45
2022-08-04T11:20:55.152Z,4.70
2022-08-04T11:23:27.892Z,3.83
2022-08-04T11:26:06.371Z,3.55
2022-08-04T11:29:08.671Z,3.78
2022-08-04T11:31:48.430Z,3.63
2022-08-04T11:34:24.875Z,4.43
2022-08-04T11:37:33.708Z,2.53
2022-08-04T11:40:15.972Z,4.60
2022-08-04T11:43:09.669Z,10.90
2022-08-04T11:45:54.596Z,6.65
2022-08-04T11:48:36.861Z,2.60
2022-08-04T11:51:06.698Z,3.72
2022-08-04T11:53:37.462Z,3.00
2022-08-04T11:56:09.917Z,2.50
2022-08-04T11:58:38.606Z,9.48
2022-08-04T12:01:32.725Z,4.43
2022-08-04T12:04:11.761Z,6.78
2022-08-04T12:07:30.982Z,4.50
2022-08-04T12:13:03.355Z,2.58
2022-08-04T12:15:36.237Z,15.35
2022-08-04T12:18:17.672Z,4.53
2022-08-04T12:21:09.914Z,4.20
2022-08-04T12:23:40.455Z,4.70
2022-08-04T12:26:10.693Z,4.10
2022-08-04T12:31:47.292Z,6.15
2022-08-04T12:34:34.057Z,2.85
2022-08-04T12:37:30.207Z,5.40
2022-08-04T12:40:28.304Z,3.55
2022-08-04T12:43:03.104Z,2.60
2022-08-04T12:45:30.774Z,4.30
2022-08-04T12:48:01.826Z,6.13
2022-08-04T12:50:29.522Z,4.85
2022-08-04T12:53:02.616Z,2.50
2022-08-04T12:55:33.643Z,5.90
2022-08-04T12:58:02.831Z,10.02
2022-08-04T13:00:40.758Z,5.65
2022-08-04T13:03:19.641Z,3.20
2022-08-04T13:05:47.551Z,2.60
2022-08-04T13:08:16.555Z,3.10
2022-08-04T13:10:48.115Z,8.57
2022-08-04T13:13:20.831Z,2.45
2022-08-04T13:16:02.740Z,6.22
2022-08-04T13:18:33.725Z,2.38
2022-08-04T13:24:21.092Z,3.17
2022-08-04T13:27:03.393Z,3.25
2022-08-04T13:29:59.201Z,4.05
2022-08-04T13:32:30.838Z,3.58
2022-08-04T13:35:01.323Z,3.45
2022-08-04T13:37:35.819Z,3.28
2022-08-04T13:40:06.397Z,5.82
2022-08-04T13:42:37.202Z,5.40
2022-08-04T13:45:06.317Z,18.35
2022-08-04T13:47:37.912Z,8.23
2022-08-04T13:50:12.102Z,3.45
2022-08-04T13:52:41.187Z,6.50
2022-08-04T13:55:09.084Z,6.38
2022-08-04T13:57:44.679Z,5.75
2022-08-04T14:00:12.310Z,2.40
2022-08-04T14:02:59.033Z,5.07
2022-08-04T14:05:31.256Z,4.55
2022-08-04T14:08:06.755Z,3.25
2022-08-04T14:10:35.068Z,7.60
2022-08-04T14:13:04.826Z,4.53
2022-08-04T14:16:01.680Z,2.55
2022-08-04T14:18:32.406Z,2.70
2022-08-04T14:21:05.118Z,2.83
2022-08-04T14:23:47.239Z,4.35
2022-08-04T14:26:33.092Z,4.18
2022-08-04T14:29:26.948Z,6.75
2022-08-04T14:32:03.014Z,5.18
2022-08-04T14:34:30.516Z,4.63
2022-08-04T14:37:17.839Z,6.10
2022-08-04T14:40:08.861Z,3.63
2022-08-04T14:42:55.080Z,4.15
2022-08-04T14:45:35.938Z,2.60
2022-08-04T14:50:41.245Z,3.15
2022-08-04T14:53:11.027Z,3.45
2022-08-04T14:55:39.814Z,2.53
2022-08-04T14:58:35.742Z,3.25
2022-08-04T15:00:59.366Z,4.28
2022-08-04T15:03:27.647Z,5.35
2022-08-04T15:06:02.858Z,2.95
2022-08-04T15:08:32.919Z,3.88
2022-08-04T15:11:03.229Z,4.03
2022-08-04T15:13:32.431Z,6.30
2022-08-04T15:16:07.539Z,2.45
2022-08-04T15:18:37.429Z,3.97
2022-08-04T15:21:05.691Z,3.25
2022-08-04T15:23:39.248Z,2.72
2022-08-04T15:26:11.455Z,4.40
2022-08-04T15:28:41.099Z,3.10
2022-08-04T15:32:06.396Z,2.50
2022-08-04T15:33:57.245Z,3.50
2022-08-04T15:36:56.974Z,3.00
2022-08-04T15:39:46.165Z,7.15
2022-08-04T15:42:30.121Z,2.47
2022-08-04T15:45:15.769Z,8.65
2022-08-04T15:47:42.608Z,3.70
2022-08-04T15:50:28.209Z,3.58
2022-08-04T15:53:01.409Z,3.20
2022-08-04T15:55:39.796Z,5.43
2022-08-04T15:58:12.702Z,4.87
2022-08-04T16:00:51.363Z,27.75
2022-08-04T16:03:59.022Z,15.15
2022-08-04T16:06:23.736Z,4.90
2022-08-04T16:09:05.307Z,3.08
2022-08-04T16:11:40.397Z,2.95
2022-08-04T16:14:11.032Z,2.63
2022-08-04T16:16:41.051Z,6.93
2022-08-04T16:19:35.323Z,4.03
2022-08-04T16:22:04.005Z,7.57
2022-08-04T16:24:41.646Z,6.20
2022-08-04T16:27:10.365Z,4.32
2022-08-04T16:29:44.035Z,2.97
2022-08-04T16:32:17.440Z,4.40
2022-08-04T16:34:56.452Z,4.70
2022-08-04T16:37:30.773Z,4.77
2022-08-04T16:40:33.808Z,3.25
2022-08-04T16:43:06.615Z,3.55
2022-08-04T16:45:43.809Z,5.18
2022-08-04T16:48:12.483Z,4.20
2022-08-04T16:50:48.523Z,3.47
2022-08-04T16:53:51.494Z,4.70
2022-08-04T16:56:05.835Z,2.60
2022-08-04T16:58:34.464Z,3.45
2022-08-04T17:01:27.658Z,2.33
2022-08-04T17:04:04.827Z,2.97
2022-08-04T17:06:37.428Z,3.03
2022-08-04T17:09:28.765Z,2.58
2022-08-04T17:11:56.955Z,3.53
2022-08-04T17:14:26.985Z,4.68
2022-08-04T17:19:25.223Z,5.10
2022-08-04T17:22:00.372Z,3.35
2022-08-04T17:24:29.972Z,2.17
2022-08-04T17:26:58.328Z,3.08
2022-08-04T17:29:44.154Z,3.03
2022-08-04T17:32:20.951Z,4.30
2022-08-04T17:34:57.359Z,4.57
2022-08-04T17:37:53.206Z,3.75
2022-08-04T17:40:22.492Z,2.58
2022-08-04T17:42:50.795Z,3.47
2022-08-04T17:48:24.441Z,2.90
2022-08-04T17:50:52.246Z,3.80
2022-08-04T17:54:02.907Z,5.38
2022-08-04T17:56:51.339Z,8.90
2022-08-04T17:59:55.566Z,5.95
2022-08-04T18:02:09.548Z,6.18
2022-08-04T18:05:05.695Z,3.67
2022-08-04T18:08:38.747Z,4.43
2022-08-04T18:10:55.092Z,5.75
2022-08-04T18:13:25.051Z,5.53
2022-08-04T18:16:04.735Z,4.50
2022-08-04T18:18:31.732Z,4.03
2022-08-04T18:21:03.178Z,4.32
2022-08-04T18:23:32.886Z,3.55
2022-08-04T18:26:01.965Z,4.35
2022-08-04T18:28:33.049Z,4.07
2022-08-04T18:31:00.210Z,4.85
2022-08-04T18:33:40.485Z,4.45
2022-08-04T18:36:34.099Z,6.70
2022-08-04T18:38:59.144Z,7.70
2022-08-04T18:44:27.510Z,8.65
2022-08-04T18:46:56.292Z,9.25
2022-08-04T18:50:31.873Z,15.48
2022-08-04T18:52:15.171Z,12.43
2022-08-04T18:54:43.078Z,10.07
2022-08-04T18:57:32.823Z,10.85
2022-08-04T18:59:57.410Z,9.80
2022-08-04T19:02:27.328Z,10.43
2022-08-04T19:04:54.388Z,12.05
2022-08-04T19:07:23.300Z,11.63
2022-08-04T19:09:58.116Z,10.48
2022-08-04T19:12:28.277Z,14.40
2022-08-04T19:20:30.804Z,9.27
2022-08-04T19:24:28.820Z,12.10
2022-08-04T19:26:02.140Z,11.07
2022-08-04T19:28:35.148Z,11.52
2022-08-04T19:31:09.392Z,11.98
2022-08-04T19:33:55.910Z,10.75
2022-08-04T19:36:28.452Z,13.35
2022-08-04T19:38:57.648Z,10.88
2022-08-04T19:41:26.677Z,14.75
2022-08-04T19:43:54.226Z,11.52
2022-08-04T19:46:21.421Z,10.57
2022-08-04T19:48:59.187Z,10.15
2022-08-04T19:51:28.116Z,10.48
2022-08-04T19:54:02.356Z,9.80
2022-08-04T19:59:18.156Z,8.57
2022-08-04T20:01:46.070Z,8.63
2022-08-04T20:04:14.759Z,10.32
2022-08-04T20:06:42.600Z,10.52
2022-08-04T20:09:25.923Z,14.48
2022-08-04T20:11:57.593Z,17.15
2022-08-04T20:14:31.768Z,13.93
2022-08-04T20:17:01.088Z,15.82
2022-08-04T20:19:27.979Z,11.45
2022-08-04T20:21:57.418Z,13.32
2022-08-04T20:24:38.072Z,13.65
2022-08-04T20:27:14.903Z,13.60
2022-08-04T20:29:48.542Z,13.80
2022-08-04T20:32:21.879Z,14.98
2022-08-04T20:34:55.212Z,16.35
2022-08-04T20:37:24.413Z,15.25
2022-08-04T20:40:00.852Z,14.82
2022-08-04T20:42:33.736Z,14.88
2022-08-04T20:45:01.582Z,13.02
2022-08-04T20:47:31.105Z,14.32
2022-08-04T20:50:09.151Z,15.48
2022-08-04T20:55:23.969Z,14.38
2022-08-04T20:57:52.901Z,12.98
2022-08-04T21:00:26.316Z,12.10
2022-08-04T21:02:57.264Z,10.00
2022-08-04T21:05:24.051Z,10.35
2022-08-04T21:07:56.549Z,10.32
2022-08-04T21:12:52.873Z,10.70
2022-08-04T21:15:24.974Z,11.05
2022-08-04T21:17:57.997Z,9.65
2022-08-04T21:20:31.541Z,9.05
2022-08-04T21:23:02.338Z,10.90
2022-08-04T21:25:30.658Z,9.70
2022-08-04T21:27:58.536Z,11.25
2022-08-04T21:30:26.666Z,9.85
2022-08-04T21:32:55.430Z,10.85
2022-08-04T21:35:36.641Z,9.70
2022-08-04T21:38:13.986Z,10.45
2022-08-04T21:40:54.966Z,12.02
2022-08-04T21:46:09.497Z,10.43
2022-08-04T21:48:36.237Z,11.27
2022-08-04T21:51:57.258Z,11.48
2022-08-04T21:54:08.980Z,10.45
2022-08-04T21:56:38.003Z,11.23
2022-08-04T21:59:11.092Z,12.70
2022-08-04T22:01:52.205Z,9.95
2022-08-04T22:04:19.603Z,10.45
2022-08-04T22:06:47.750Z,9.70
2022-08-04T22:09:19.155Z,9.98
2022-08-04T22:11:50.955Z,10.52
2022-08-04T22:14:27.374Z,11.15
2022-08-04T22:16:57.031Z,11.23
2022-08-04T22:19:39.845Z,11.73
2022-08-04T22:22:13.672Z,11.48
2022-08-04T22:24:54.513Z,10.93
2022-08-04T22:27:39.770Z,9.40
2022-08-04T22:30:16.865Z,9.57
2022-08-04T22:32:46.519Z,10.13
2022-08-04T22:35:30.988Z,9.25
2022-08-04T22:38:07.806Z,7.43
2022-08-04T22:40:47.609Z,8.20
2022-08-04T22:43:31.695Z,9.10
2022-08-04T22:46:03.962Z,8.40
2022-08-04T22:48:33.845Z,10.30
2022-08-04T22:51:02.638Z,8.63
2022-08-04T22:53:29.658Z,8.65
2022-08-04T22:56:09.974Z,11.82
2022-08-04T23:01:15.004Z,7.53
2022-08-04T23:03:42.589Z,9.32
2022-08-04T23:06:24.202Z,7.03
2022-08-04T23:08:52.007Z,6.50
2022-08-04T23:11:18.819Z,7.10
2022-08-04T23:13:45.692Z,5.95
2022-08-04T23:16:14.169Z,5.95
2022-08-04T23:18:42.206Z,7.18
2022-08-04T23:21:12.269Z,6.13
2022-08-04T23:23:45.589Z,6.75
2022-08-04T23:26:28.362Z,6.13
2022-08-04T23:28:56.431Z,7.43
2022-08-04T23:31:40.970Z,7.82
2022-08-04T23:34:16.770Z,5.72
2022-08-04T23:36:45.715Z,6.07
2022-08-04T23:39:14.422Z,6.70
2022-08-04T23:41:53.714Z,5.97
2022-08-04T23:44:25.436Z,5.90
2022-08-04T23:47:03.379Z,6.05
2022-08-04T23:49:45.073Z,7.18
2022-08-04T23:52:28.129Z,5.28
2022-08-04T23:55:00.589Z,5.28
2022-08-04T23:59:58.815Z,5.65
